createdAt,value
2024-03-01T00:01:11.462Z,275.30
2024-03-01T00:03:39.526Z,258.07
2024-03-01T00:06:07.384Z,255.93
2024-03-01T00:08:35.268Z,218.00
2024-03-01T00:11:03.110Z,127.83
2024-03-01T00:13:31.163Z,137.23
2024-03-01T00:16:01.074Z,145.60
2024-03-01T00:18:28.982Z,128.80
2024-03-01T00:20:56.847Z,164.80
2024-03-01T00:23:24.710Z,136.93
2024-03-01T00:25:52.567Z,117.93
2024-03-01T00:28:21.214Z,111.77
2024-03-01T00:30:49.284Z,94.77
2024-03-01T00:33:18.573Z,94.20
2024-03-01T00:35:46.442Z,40.90
2024-03-01T00:38:14.286Z,36.60
2024-03-01T00:40:42.164Z,90.20
2024-03-01T00:43:10.541Z,100.07
2024-03-01T00:45:38.546Z,135.37
2024-03-01T00:48:10.191Z,128.23
2024-03-01T00:50:39.648Z,94.40
2024-03-01T00:53:09.979Z,92.60
2024-03-01T00:55:38.749Z,55.03
2024-03-01T00:58:06.865Z,35.83
2024-03-01T01:00:34.852Z,28.13
2024-03-01T01:03:02.734Z,25.27
2024-03-01T01:05:30.548Z,26.00
2024-03-01T01:08:00.429Z,28.40
2024-03-01T01:10:29.741Z,25.13
2024-03-01T01:12:57.703Z,26.00
2024-03-01T01:15:25.562Z,25.83
2024-03-01T01:17:53.565Z,29.37
2024-03-01T01:20:21.565Z,30.87
2024-03-01T01:22:49.750Z,27.70
2024-03-01T01:25:19.480Z,28.10
2024-03-01T01:27:47.506Z,28.50
2024-03-01T01:30:15.563Z,29.17
2024-03-01T01:32:43.402Z,32.33
2024-03-01T01:35:11.245Z,29.03
2024-03-01T01:37:39.178Z,27.83
2024-03-01T01:40:09.601Z,30.13
2024-03-01T01:42:38.934Z,31.60
2024-03-01T01:45:08.034Z,32.90
2024-03-01T01:47:35.989Z,26.07
2024-03-01T01:50:04.627Z,24.27
2024-03-01T01:52:33.862Z,28.30
2024-03-01T01:55:01.925Z,28.07
2024-03-01T01:57:30.805Z,29.97
2024-03-01T02:00:00.834Z,25.33
2024-03-01T02:02:29.992Z,26.40
2024-03-01T02:04:57.962Z,26.80
2024-03-01T02:07:26.452Z,27.60
2024-03-01T02:09:54.589Z,27.40
2024-03-01T02:12:23.253Z,30.20
2024-03-01T02:14:52.115Z,32.77
2024-03-01T02:17:21.307Z,28.73
2024-03-01T02:19:49.650Z,28.53
2024-03-01T02:22:21.467Z,24.60
2024-03-01T02:24:52.330Z,23.27
2024-03-01T02:27:20.299Z,23.60
2024-03-01T02:29:48.312Z,21.80
2024-03-01T02:32:16.470Z,21.60
2024-03-01T02:34:45.273Z,20.87
2024-03-01T02:37:13.237Z,19.73
2024-03-01T02:39:41.157Z,23.90
2024-03-01T02:42:10.595Z,21.27
2024-03-01T02:44:38.467Z,19.73
2024-03-01T02:47:06.641Z,22.70
2024-03-01T02:49:34.856Z,19.33
2024-03-01T02:52:02.846Z,19.57
2024-03-01T02:54:30.751Z,19.13
2024-03-01T02:56:59.465Z,17.03
2024-03-01T02:59:28.672Z,16.90
2024-03-01T03:01:56.574Z,19.87
2024-03-01T03:04:24.578Z,21.10
2024-03-01T03:06:55.491Z,19.00
2024-03-01T03:09:27.074Z,20.63
2024-03-01T03:11:54.982Z,17.93
2024-03-01T03:14:22.879Z,20.27
2024-03-01T03:16:53.666Z,20.03
2024-03-01T03:19:21.572Z,17.90
2024-03-01T03:21:49.652Z,19.93
2024-03-01T03:24:17.519Z,20.40
2024-03-01T03:26:45.728Z,18.70
2024-03-01T03:29:13.569Z,17.60
2024-03-01T03:31:42.388Z,17.17
2024-03-01T03:34:12.443Z,19.10
2024-03-01T03:36:40.471Z,19.30
2024-03-01T03:39:08.658Z,17.60
2024-03-01T03:41:36.714Z,19.73
2024-03-01T03:44:04.555Z,19.17
2024-03-01T03:46:32.528Z,18.37
2024-03-01T03:49:00.663Z,17.37
2024-03-01T03:51:31.840Z,18.23
2024-03-01T03:53:59.693Z,16.40
2024-03-01T03:56:28.003Z,18.23
2024-03-01T03:58:55.823Z,17.57
2024-03-01T04:01:24.047Z,17.10
2024-03-01T04:03:52.445Z,17.17
2024-03-01T04:06:20.509Z,16.03
2024-03-01T04:08:50.495Z,15.60
2024-03-01T04:11:18.460Z,16.50
2024-03-01T04:13:47.470Z,16.97
2024-03-01T04:16:15.395Z,15.50
2024-03-01T04:18:43.281Z,17.13
2024-03-01T04:21:11.199Z,16.50
2024-03-01T04:23:39.332Z,16.73
2024-03-01T04:26:10.565Z,17.20
2024-03-01T04:28:42.313Z,16.77
2024-03-01T04:31:10.311Z,17.57
2024-03-01T04:33:41.385Z,15.37
2024-03-01T04:36:09.399Z,16.43
2024-03-01T04:38:37.997Z,13.53
2024-03-01T04:41:07.043Z,14.90
2024-03-01T04:43:36.367Z,15.47
2024-03-01T04:46:04.916Z,13.63
2024-03-01T04:48:32.822Z,16.83
2024-03-01T04:51:00.628Z,14.93
2024-03-01T04:53:28.455Z,15.30
2024-03-01T04:55:56.297Z,15.00
2024-03-01T04:58:24.306Z,14.43
2024-03-01T05:00:54.001Z,15.27
2024-03-01T05:03:22.109Z,15.00
2024-03-01T05:05:50.271Z,15.50
2024-03-01T05:08:20.714Z,14.40
2024-03-01T05:10:51.034Z,14.33
2024-03-01T05:13:19.722Z,14.40
2024-03-01T05:15:48.335Z,14.03
2024-03-01T05:18:18.900Z,15.27
2024-03-01T05:20:47.323Z,13.00
2024-03-01T05:23:15.268Z,13.40
2024-03-01T05:25:43.717Z,14.30
2024-03-01T05:28:11.746Z,13.57
2024-03-01T05:30:49.305Z,12.33
2024-03-01T05:33:21.606Z,13.70
2024-03-01T05:35:49.853Z,13.17
2024-03-01T05:38:17.688Z,14.80
2024-03-01T05:40:51.383Z,12.90
2024-03-01T05:43:23.701Z,15.13
2024-03-01T05:45:54.689Z,13.37
2024-03-01T05:48:24.560Z,13.57
2024-03-01T05:50:54.050Z,14.00
2024-03-01T05:53:21.958Z,13.30
2024-03-01T05:55:51.007Z,13.83
2024-03-01T05:58:20.315Z,13.03
2024-03-01T06:00:48.521Z,12.50
2024-03-01T06:03:17.692Z,15.47
2024-03-01T06:05:46.866Z,13.30
2024-03-01T06:08:14.927Z,14.60
2024-03-01T06:11:02.789Z,12.23
2024-03-01T06:13:30.727Z,12.50
2024-03-01T06:15:58.629Z,13.20
2024-03-01T06:18:26.498Z,15.13
2024-03-01T06:20:55.816Z,14.57
2024-03-01T06:23:23.704Z,13.83
2024-03-01T06:25:51.708Z,12.43
2024-03-01T06:28:19.671Z,14.40
2024-03-01T06:30:47.971Z,12.80
2024-03-01T06:33:16.035Z,13.47
2024-03-01T06:35:43.860Z,13.23
2024-03-01T06:38:13.158Z,14.77
2024-03-01T06:40:41.193Z,12.23
2024-03-01T06:43:09.086Z,14.87
2024-03-01T06:45:36.917Z,15.97
2024-03-01T06:48:05.798Z,15.87
2024-03-01T06:50:33.654Z,13.47
2024-03-01T06:53:01.488Z,17.00
2024-03-01T06:55:30.721Z,16.57
2024-03-01T06:58:03.578Z,17.00
2024-03-01T07:00:32.306Z,15.80
2024-03-01T07:03:00.382Z,19.57
2024-03-01T07:05:28.376Z,23.27
2024-03-01T07:07:56.727Z,21.53
2024-03-01T07:10:24.690Z,19.37
2024-03-01T07:12:54.697Z,18.47
2024-03-01T07:15:22.586Z,19.10
2024-03-01T07:17:53.551Z,18.90
2024-03-01T07:20:21.439Z,18.97
2024-03-01T07:22:50.285Z,19.13
2024-03-01T07:25:18.396Z,18.30
2024-03-01T07:27:46.351Z,20.50
2024-03-01T07:30:16.259Z,18.70
2024-03-01T07:32:44.170Z,17.77
2024-03-01T07:35:12.016Z,16.63
2024-03-01T07:37:41.091Z,16.90
2024-03-01T07:40:10.287Z,16.93
2024-03-01T07:42:38.641Z,17.00
2024-03-01T07:45:08.150Z,16.10
2024-03-01T07:47:37.352Z,17.07
2024-03-01T07:50:06.115Z,16.33
2024-03-01T07:52:34.130Z,16.00
2024-03-01T07:55:02.137Z,14.47
2024-03-01T07:57:30.051Z,14.93
2024-03-01T07:59:58.141Z,15.43
2024-03-01T08:02:26.071Z,15.87
2024-03-01T08:04:55.696Z,15.63
2024-03-01T08:07:23.588Z,16.00
2024-03-01T08:09:51.628Z,16.60
2024-03-01T08:12:20.122Z,15.67
2024-03-01T08:14:48.422Z,16.30
2024-03-01T08:17:16.313Z,16.50
2024-03-01T08:19:46.696Z,17.40
2024-03-01T08:22:17.821Z,17.10
2024-03-01T08:24:47.426Z,16.50
2024-03-01T08:27:17.316Z,18.27
2024-03-01T08:29:45.596Z,16.37
2024-03-01T08:32:28.993Z,16.13
2024-03-01T08:34:59.430Z,18.07
2024-03-01T08:37:30.993Z,16.77
2024-03-01T08:39:59.373Z,15.03
2024-03-01T08:42:30.222Z,14.67
2024-03-01T08:45:00.890Z,18.20
2024-03-01T08:47:32.491Z,17.60
2024-03-01T08:50:39.183Z,16.27
2024-03-01T08:53:56.701Z,18.00
2024-03-01T08:56:29.048Z,22.90
2024-03-01T08:58:58.129Z,28.07
2024-03-01T09:01:48.556Z,30.70
2024-03-01T09:04:26.160Z,25.97
2024-03-01T09:07:09.177Z,25.10
2024-03-01T09:09:40.494Z,22.93
2024-03-01T09:12:10.427Z,19.80
2024-03-01T09:14:38.320Z,20.27
2024-03-01T09:17:07.540Z,19.60
2024-03-01T09:19:41.086Z,22.23
2024-03-01T09:22:09.165Z,23.07
2024-03-01T09:24:40.542Z,23.00
2024-03-01T09:27:27.529Z,21.40
2024-03-01T09:29:56.512Z,23.30
2024-03-01T09:32:24.806Z,29.57
2024-03-01T09:34:53.057Z,22.97
2024-03-01T09:37:22.639Z,22.10
2024-03-01T09:39:52.413Z,23.33
2024-03-01T09:42:45.916Z,19.60
2024-03-01T09:45:47.298Z,20.07
2024-03-01T09:48:38.537Z,22.00
2024-03-01T09:51:21.244Z,23.03
2024-03-01T09:54:11.861Z,22.27
2024-03-01T09:56:57.338Z,66.43
2024-03-01T09:59:34.946Z,20.30
2024-03-01T10:02:13.314Z,18.30
2024-03-01T10:04:53.126Z,17.10
2024-03-01T10:07:28.479Z,14.97
2024-03-01T10:10:27.400Z,14.07
2024-03-01T10:13:00.910Z,11.83
2024-03-01T10:15:38.922Z,10.90
2024-03-01T10:18:22.777Z,10.77
2024-03-01T10:21:00.223Z,9.40
2024-03-01T10:23:44.268Z,8.53
2024-03-01T10:26:20.529Z,8.30
2024-03-01T10:29:10.178Z,9.90
2024-03-01T10:31:44.654Z,9.10
2024-03-01T10:34:20.723Z,9.33
2024-03-01T10:36:54.651Z,8.00
2024-03-01T10:39:31.979Z,8.17
2024-03-01T10:42:09.267Z,9.13
2024-03-01T10:44:45.469Z,8.37
2024-03-01T10:47:22.229Z,7.63
2024-03-01T10:50:08.394Z,8.67
2024-03-01T10:52:39.155Z,8.27
2024-03-01T10:55:23.273Z,9.27
2024-03-01T10:58:01.457Z,8.73
2024-03-01T11:00:30.870Z,9.53
2024-03-01T11:03:07.708Z,8.50
2024-03-01T11:05:40.616Z,7.70
2024-03-01T11:08:23.895Z,7.63
2024-03-01T11:10:58.720Z,8.13
2024-03-01T11:13:30.289Z,6.17
2024-03-01T11:16:00.750Z,8.37
2024-03-01T11:18:43.079Z,7.97
2024-03-01T11:21:13.385Z,7.33
2024-03-01T11:23:44.917Z,7.30
2024-03-01T11:26:17.405Z,7.50
2024-03-01T11:28:50.383Z,7.20
2024-03-01T11:31:22.460Z,6.33
2024-03-01T11:33:53.215Z,7.40
2024-03-01T11:36:41.164Z,6.47
2024-03-01T11:39:23.690Z,6.93
2024-03-01T11:41:54.838Z,6.43
2024-03-01T11:44:35.221Z,6.83
2024-03-01T11:47:16.887Z,5.33
2024-03-01T11:50:08.269Z,6.77
2024-03-01T11:52:54.675Z,6.63
2024-03-01T11:55:40.129Z,6.30
2024-03-01T11:58:22.177Z,5.77
2024-03-01T12:01:08.388Z,7.00
2024-03-01T12:04:25.304Z,7.00
2024-03-01T12:07:12.652Z,6.60
2024-03-01T12:09:53.694Z,6.00
2024-03-01T12:12:36.225Z,7.70
2024-03-01T12:15:10.280Z,6.80
2024-03-01T12:17:45.297Z,7.03
2024-03-01T12:20:17.520Z,5.60
2024-03-01T12:22:54.706Z,6.87
2024-03-01T12:25:26.998Z,5.77
2024-03-01T12:28:14.710Z,6.80
2024-03-01T12:30:58.337Z,5.30
2024-03-01T12:33:47.357Z,6.07
2024-03-01T12:36:33.116Z,6.60
2024-03-01T12:39:12.733Z,6.57
2024-03-01T12:41:55.479Z,6.70
2024-03-01T12:44:31.937Z,6.27
2024-03-01T12:47:24.803Z,6.40
2024-03-01T12:50:07.504Z,6.13
2024-03-01T12:52:56.975Z,5.80
2024-03-01T12:55:35.108Z,6.17
2024-03-01T12:58:11.850Z,5.13
2024-03-01T13:00:47.652Z,5.87
2024-03-01T13:03:28.567Z,5.90
2024-03-01T13:05:57.056Z,5.20
2024-03-01T13:08:28.937Z,5.63
2024-03-01T13:11:06.187Z,5.50
2024-03-01T13:13:38.329Z,4.40
2024-03-01T13:16:10.356Z,5.10
2024-03-01T13:18:46.338Z,4.67
2024-03-01T13:21:21.825Z,5.00
2024-03-01T13:24:01.038Z,4.73
2024-03-01T13:26:40.206Z,6.47
2024-03-01T13:29:14.218Z,10.00
2024-03-01T13:31:49.777Z,5.30
2024-03-01T13:34:25.319Z,6.43
2024-03-01T13:37:05.528Z,5.83
2024-03-01T13:39:40.277Z,4.97
2024-03-01T13:42:26.902Z,6.00
2024-03-01T13:45:01.225Z,5.70
2024-03-01T13:47:32.408Z,5.80
2024-03-01T13:50:08.508Z,5.33
2024-03-01T13:52:38.085Z,4.87
2024-03-01T13:55:11.574Z,5.10
2024-03-01T13:57:42.648Z,4.50
2024-03-01T14:00:16.082Z,5.27
2024-03-01T14:02:44.698Z,5.67
2024-03-01T14:05:15.599Z,5.23
2024-03-01T14:07:47.599Z,5.03
2024-03-01T14:10:15.918Z,5.23
2024-03-01T14:12:45.954Z,6.00
2024-03-01T14:15:14.790Z,8.90
2024-03-01T14:17:55.916Z,7.00
2024-03-01T14:20:23.883Z,5.00
2024-03-01T14:22:54.225Z,4.93
2024-03-01T14:25:23.197Z,5.23
2024-03-01T14:27:55.653Z,4.43
2024-03-01T14:30:26.693Z,4.87
2024-03-01T14:32:56.416Z,4.53
2024-03-01T14:35:26.160Z,4.63
2024-03-01T14:37:56.076Z,4.90
2024-03-01T14:40:27.697Z,4.03
2024-03-01T14:43:00.602Z,4.40
2024-03-01T14:45:39.277Z,4.03
2024-03-01T14:48:09.797Z,5.33
2024-03-01T14:50:44.613Z,4.53
2024-03-01T14:53:17.349Z,4.20
2024-03-01T14:55:45.897Z,63.53
2024-03-01T14:58:17.065Z,5.50
2024-03-01T15:00:46.632Z,5.90
2024-03-01T15:03:14.550Z,6.10
2024-03-01T15:05:42.475Z,6.30
2024-03-01T15:08:12.264Z,6.10
2024-03-01T15:10:44.002Z,5.27
2024-03-01T15:13:12.092Z,5.20
2024-03-01T15:15:48.082Z,6.87
2024-03-01T15:18:21.315Z,8.30
2024-03-01T15:20:49.495Z,6.53
2024-03-01T15:23:18.548Z,6.20
2024-03-01T15:25:46.457Z,5.57
2024-03-01T15:28:15.006Z,6.63
2024-03-01T15:30:43.748Z,5.53
2024-03-01T15:33:14.937Z,7.10
2024-03-01T15:35:42.884Z,6.53
2024-03-01T15:38:10.673Z,5.80
2024-03-01T15:40:39.374Z,7.40
2024-03-01T15:43:07.920Z,9.30
2024-03-01T15:45:35.916Z,7.97
2024-03-01T15:48:04.211Z,7.30
2024-03-01T15:50:34.360Z,5.40
2024-03-01T15:53:04.049Z,5.10
2024-03-01T15:55:32.999Z,6.80
2024-03-01T15:58:01.516Z,6.83
2024-03-01T16:00:30.172Z,6.70
2024-03-01T16:02:58.124Z,6.73
2024-03-01T16:05:26.009Z,21.13
2024-03-01T16:07:55.348Z,7.40
2024-03-01T16:10:23.522Z,7.10
2024-03-01T16:12:53.351Z,11.07
2024-03-01T16:15:22.055Z,8.60
2024-03-01T16:17:51.682Z,8.30
2024-03-01T16:20:20.106Z,9.33
2024-03-01T16:22:50.588Z,7.80
2024-03-01T16:25:20.320Z,37.97
2024-03-01T16:27:48.681Z,11.40
2024-03-01T16:30:25.340Z,999.90
2024-03-01T16:32:54.273Z,999.90
2024-03-01T16:36:08.591Z,915.10
2024-03-01T16:38:37.630Z,999.90
2024-03-01T16:41:32.726Z,999.90
2024-03-01T16:44:02.365Z,999.90
2024-03-01T16:46:33.261Z,999.90
2024-03-01T16:49:03.020Z,999.90
2024-03-01T16:51:41.852Z,999.90
2024-03-01T16:54:27.794Z,999.90
2024-03-01T16:57:00.583Z,999.90
2024-03-01T16:59:29.007Z,999.90
2024-03-01T17:01:57.595Z,999.90
2024-03-01T17:04:30.510Z,999.90
2024-03-01T17:07:01.348Z,999.90
2024-03-01T17:09:32.341Z,999.90
2024-03-01T17:12:01.670Z,999.90
2024-03-01T17:14:29.642Z,999.90
2024-03-01T17:17:01.378Z,999.90
2024-03-01T17:19:46.201Z,999.90
2024-03-01T17:22:18.195Z,999.90
2024-03-01T17:24:48.649Z,999.90
2024-03-01T17:27:18.283Z,999.90
2024-03-01T17:29:47.073Z,999.90
2024-03-01T17:32:15.722Z,999.90
2024-03-01T17:34:44.024Z,999.90
2024-03-01T17:37:12.500Z,999.90
2024-03-01T17:39:41.672Z,999.90
2024-03-01T17:42:12.730Z,999.90
2024-03-01T17:44:42.477Z,999.90
2024-03-01T17:47:10.741Z,999.90
2024-03-01T17:49:38.958Z,999.90
2024-03-01T17:52:07.749Z,999.90
2024-03-01T17:54:36.580Z,999.90
2024-03-01T17:57:06.668Z,999.90
2024-03-01T17:59:34.899Z,999.90
2024-03-01T18:02:08.484Z,999.90
2024-03-01T18:04:37.340Z,999.90
2024-03-01T18:07:05.242Z,999.90
2024-03-01T18:09:33.193Z,999.90
2024-03-01T18:12:01.009Z,999.90
2024-03-01T18:14:28.864Z,999.90
2024-03-01T18:16:56.826Z,999.90
2024-03-01T18:19:26.114Z,999.90
2024-03-01T18:21:54.990Z,999.90
2024-03-01T18:24:23.033Z,999.90
2024-03-01T18:26:51.126Z,999.90
2024-03-01T18:29:19.032Z,999.90
2024-03-01T18:31:47.262Z,999.90
2024-03-01T18:34:15.191Z,999.90
2024-03-01T18:36:44.706Z,999.90
2024-03-01T18:39:12.524Z,999.90
2024-03-01T18:41:40.360Z,999.90
2024-03-01T18:44:09.134Z,999.90
2024-03-01T18:46:38.268Z,999.90
2024-03-01T18:49:06.583Z,999.90
2024-03-01T18:51:34.967Z,999.90
2024-03-01T18:54:04.938Z,999.90
2024-03-01T18:56:34.785Z,999.90
2024-03-01T18:59:04.328Z,999.90
2024-03-01T19:01:32.570Z,999.90
2024-03-01T19:04:00.916Z,999.90
2024-03-01T19:06:28.947Z,999.90
2024-03-01T19:08:56.815Z,999.90
2024-03-01T19:11:26.537Z,999.90
2024-03-01T19:13:55.951Z,999.90
2024-03-01T19:16:23.872Z,999.90
2024-03-01T19:18:51.762Z,999.90
2024-03-01T19:21:19.758Z,999.90
2024-03-01T19:23:47.787Z,999.90
2024-03-01T19:26:17.541Z,999.90
2024-03-01T19:28:47.320Z,999.90
2024-03-01T19:31:15.292Z,999.90
2024-03-01T19:33:43.227Z,999.90
2024-03-01T19:36:11.075Z,999.90
2024-03-01T19:38:39.115Z,999.90
2024-03-01T19:41:06.975Z,999.90
2024-03-01T19:43:34.896Z,999.90
2024-03-01T19:46:04.761Z,999.90
2024-03-01T19:48:32.652Z,999.90
2024-03-01T19:51:00.517Z,999.90
2024-03-01T19:53:28.370Z,999.90
2024-03-01T19:55:56.169Z,999.90
2024-03-01T19:58:24.016Z,999.90
2024-03-01T20:00:52.051Z,999.90
2024-03-01T20:03:21.392Z,999.90
2024-03-01T20:05:49.409Z,999.90
2024-03-01T20:08:17.597Z,999.90
2024-03-01T20:10:45.651Z,999.90
2024-03-01T20:13:13.692Z,999.90
2024-03-01T20:15:41.738Z,999.90
2024-03-01T20:18:10.349Z,999.90
2024-03-01T20:20:39.656Z,999.90
2024-03-01T20:23:07.711Z,999.90
2024-03-01T20:25:36.564Z,999.90
2024-03-01T20:28:06.199Z,999.90
2024-03-01T20:30:34.184Z,999.90
2024-03-01T20:33:02.135Z,999.90
2024-03-01T20:35:29.986Z,999.90
2024-03-01T20:37:59.144Z,999.90
2024-03-01T20:40:27.112Z,999.90
2024-03-01T20:42:55.819Z,999.90
2024-03-01T20:45:24.503Z,999.90
2024-03-01T20:47:52.962Z,999.90
2024-03-01T20:50:21.519Z,999.90
2024-03-01T20:52:49.673Z,999.90
2024-03-01T20:55:18.981Z,999.90
2024-03-01T20:57:46.967Z,999.90
2024-03-01T21:00:16.864Z,999.90
2024-03-01T21:02:45.494Z,999.90
2024-03-01T21:05:13.611Z,999.90
2024-03-01T21:07:41.598Z,999.90
2024-03-01T21:10:10.805Z,999.90
2024-03-01T21:12:40.126Z,999.90
2024-03-01T21:15:10.660Z,999.90
2024-03-01T21:17:39.051Z,999.90
2024-03-01T21:20:08.941Z,999.90
2024-03-01T21:25:11.665Z,999.90
2024-03-01T21:27:42.662Z,999.90
2024-03-01T21:30:11.609Z,999.90
2024-03-01T21:32:40.612Z,999.90
2024-03-01T21:35:09.519Z,999.90
2024-03-01T21:37:37.453Z,999.90
2024-03-01T21:40:12.209Z,999.90
2024-03-01T21:42:41.402Z,999.90
2024-03-01T21:45:10.447Z,999.90
2024-03-01T21:47:38.312Z,999.90
2024-03-01T21:50:07.416Z,999.90
2024-03-01T21:52:35.493Z,999.90
2024-03-01T21:55:03.546Z,999.90
2024-03-01T21:57:31.846Z,999.90
2024-03-01T22:00:01.189Z,999.90
2024-03-01T22:02:29.059Z,999.90
2024-03-01T22:05:01.511Z,999.90
2024-03-01T22:07:31.486Z,999.90
2024-03-01T22:10:00.980Z,999.90
2024-03-01T22:12:29.513Z,999.90
2024-03-01T22:14:57.484Z,999.90
2024-03-01T22:17:27.087Z,999.90
2024-03-01T22:19:54.976Z,999.90
2024-03-01T22:22:22.885Z,999.90
2024-03-01T22:24:51.031Z,999.90
2024-03-01T22:27:19.131Z,999.90
2024-03-01T22:29:50.008Z,999.90
2024-03-01T22:32:18.662Z,999.90
2024-03-01T22:34:48.088Z,999.90
2024-03-01T22:37:16.638Z,999.90
2024-03-01T22:39:46.168Z,999.90
2024-03-01T22:42:15.297Z,999.90
2024-03-01T22:44:43.290Z,999.90
2024-03-01T22:47:14.282Z,999.90
2024-03-01T22:49:43.941Z,999.90
2024-03-01T22:52:16.188Z,999.90
2024-03-01T22:54:44.715Z,999.90
2024-03-01T22:57:16.538Z,999.90
2024-03-01T23:00:19.580Z,999.90
2024-03-01T23:02:52.045Z,999.90
2024-03-01T23:05:42.855Z,999.90
2024-03-01T23:08:38.691Z,999.90
2024-03-01T23:11:08.165Z,999.90
2024-03-01T23:13:40.573Z,999.90
2024-03-01T23:16:09.246Z,999.90
2024-03-01T23:18:37.643Z,999.90
2024-03-01T23:21:05.907Z,999.90
2024-03-01T23:23:35.659Z,999.90
2024-03-01T23:26:03.532Z,999.90
2024-03-01T23:28:31.627Z,999.90
2024-03-01T23:30:59.693Z,999.90
2024-03-01T23:33:27.548Z,999.90
2024-03-01T23:35:56.373Z,999.90
2024-03-01T23:38:24.261Z,999.90
2024-03-01T23:40:54.980Z,999.90
2024-03-01T23:43:24.198Z,999.90
2024-03-01T23:45:52.392Z,999.90
2024-03-01T23:48:21.331Z,999.90
2024-03-01T23:50:50.199Z,999.90
2024-03-01T23:53:19.234Z,999.90
2024-03-01T23:55:47.674Z,999.90
2024-03-01T23:58:16.873Z,999.90
